Newton Center, Massachusetts
Current Conditions -  °F | °C
As of 7:53 PM on Sunday 23 Nov 2014 (Local Time) from KOWD Reporting Station
Scattered Clouds Scattered Clouds  
Wind Chill: 46°   Ceiling: Unl
Heat Index: 46°   Visibility: 10mi
Dew Point: 32°   Wind: 3mph
Humidity: 58%   Direction: 140°SE
Pressure: 30.13"   Gusts: NA
Location:  42.32°N, 71.19°W
Report Text: KOWD 240053Z AUTO 14003KT 10SM SCT120 08/00 A3013 RMK AO2 SLP202 T00780000
Loading
Personal Weather Stations






























Interactive Weather Map New forecast layout! Learn more

10-Day Weather Forecast

Advertisements
Track Severe Weather on mobile